createdAt,value
2018-05-10T00:01:33.920Z,55.42
2018-05-10T00:03:59.532Z,55.40
2018-05-10T00:06:25.277Z,55.79
2018-05-10T00:08:50.831Z,55.56
2018-05-10T00:11:16.399Z,55.73
2018-05-10T00:13:42.113Z,55.64
2018-05-10T00:16:07.878Z,55.38
2018-05-10T00:18:33.510Z,54.90
2018-05-10T00:20:59.277Z,54.31
2018-05-10T00:23:24.860Z,54.00
2018-05-10T00:25:50.420Z,54.29
2018-05-10T00:28:16.167Z,54.02
2018-05-10T00:30:41.897Z,54.19
2018-05-10T00:33:07.565Z,54.00
2018-05-10T00:35:33.184Z,53.67
2018-05-10T00:37:58.961Z,53.53
2018-05-10T00:40:24.513Z,53.58
2018-05-10T00:42:50.322Z,53.34
2018-05-10T00:45:16.164Z,52.86
2018-05-10T00:47:41.741Z,52.77
2018-05-10T00:50:07.421Z,52.43
2018-05-10T00:52:33.148Z,52.88
2018-05-10T00:54:58.721Z,52.61
2018-05-10T00:57:24.336Z,52.75
2018-05-10T00:59:50.075Z,52.82
2018-05-10T01:02:15.669Z,53.07
2018-05-10T01:04:41.387Z,52.70
2018-05-10T01:07:07.055Z,52.23
2018-05-10T01:09:32.790Z,52.29
2018-05-10T01:11:58.372Z,52.41
2018-05-10T01:14:24.184Z,52.23
2018-05-10T01:16:49.803Z,52.00
2018-05-10T01:19:15.358Z,52.65
2018-05-10T01:21:41.100Z,53.76
2018-05-10T01:24:06.711Z,53.83
2018-05-10T01:26:32.281Z,54.05
2018-05-10T01:28:58.159Z,54.04
2018-05-10T01:31:23.709Z,54.38
2018-05-10T01:33:49.620Z,54.60
2018-05-10T01:36:15.177Z,54.93
2018-05-10T01:38:40.751Z,55.15
2018-05-10T01:41:06.582Z,55.97
2018-05-10T01:43:32.159Z,55.92
2018-05-10T01:45:57.781Z,56.08
2018-05-10T01:48:23.551Z,56.32
2018-05-10T01:50:49.114Z,56.23
2018-05-10T01:53:14.851Z,55.90
2018-05-10T01:55:40.425Z,55.66
2018-05-10T01:58:06.592Z,55.83
2018-05-10T02:00:32.373Z,55.70
2018-05-10T02:02:58.196Z,55.75
2018-05-10T02:05:23.769Z,56.03
2018-05-10T09:33:44.907Z,74.79
2018-05-10T09:36:10.653Z,71.87
2018-05-10T09:38:36.231Z,74.33
2018-05-10T09:41:02.031Z,75.80
2018-05-10T09:43:27.817Z,76.12
2018-05-10T09:45:53.577Z,77.29
2018-05-10T09:48:19.201Z,74.91
2018-05-10T09:50:44.830Z,75.87
2018-05-10T09:53:10.629Z,75.51
2018-05-10T09:55:36.416Z,73.88
2018-05-10T09:58:02.002Z,75.43
2018-05-10T10:00:30.661Z,75.31
2018-05-10T10:02:56.375Z,76.55
2018-05-10T10:05:21.955Z,77.20
2018-05-10T10:07:47.764Z,76.36
2018-05-10T10:10:13.453Z,75.15
2018-05-10T10:12:39.024Z,75.62
2018-05-10T10:15:05.084Z,75.99
2018-05-10T10:17:30.734Z,76.38
2018-05-10T10:19:57.528Z,76.63
2018-05-10T10:22:23.234Z,75.97
2018-05-10T10:24:48.798Z,76.53
2018-05-10T10:27:14.398Z,77.29
2018-05-10T10:29:40.381Z,75.85
2018-05-10T10:32:06.149Z,77.58
2018-05-10T10:34:31.881Z,77.57
2018-05-10T10:36:57.379Z,76.95
2018-05-10T10:39:23.142Z,76.38
2018-05-10T10:41:48.864Z,76.61
2018-05-10T10:44:14.489Z,77.18
2018-05-10T10:46:40.232Z,77.40
2018-05-10T10:49:05.802Z,77.36
2018-05-10T10:51:31.357Z,76.08
2018-05-10T10:53:57.219Z,77.49
2018-05-10T10:56:22.659Z,77.40
2018-05-10T10:58:48.303Z,76.79
2018-05-10T11:01:14.369Z,77.37
2018-05-10T11:03:39.936Z,78.05
2018-05-10T11:06:05.536Z,76.92
2018-05-10T11:08:31.410Z,77.46
2018-05-10T11:10:57.004Z,78.12
2018-05-10T11:13:22.587Z,77.99
2018-05-10T11:15:48.337Z,77.57
2018-05-10T11:18:13.969Z,78.08
2018-05-10T11:20:39.525Z,78.06
2018-05-10T11:23:05.413Z,77.42
2018-05-10T11:25:31.048Z,77.82
2018-05-10T11:27:58.092Z,79.12
2018-05-10T11:30:23.825Z,79.66
2018-05-10T11:32:49.482Z,79.16
2018-05-10T11:35:15.064Z,79.74
2018-05-10T11:37:40.821Z,79.11
2018-05-10T11:40:06.413Z,78.97
2018-05-10T11:42:31.975Z,79.51
2018-05-10T11:44:58.181Z,79.81
2018-05-10T11:47:23.762Z,79.50
2018-05-10T11:49:49.619Z,79.26
2018-05-10T11:52:15.372Z,79.55
2018-05-10T11:54:41.156Z,80.14
2018-05-10T11:57:06.730Z,80.10
2018-05-10T11:59:32.481Z,80.27
2018-05-10T12:01:58.056Z,80.14
2018-05-10T12:04:23.622Z,80.21
2018-05-10T12:06:49.348Z,79.69
2018-05-10T12:09:15.074Z,79.55
2018-05-10T12:11:40.661Z,79.23
2018-05-10T12:14:06.488Z,79.48
2018-05-10T12:16:32.071Z,78.98
2018-05-10T12:18:57.791Z,79.79
2018-05-10T12:21:23.368Z,79.48
2018-05-10T12:23:48.929Z,79.75
2018-05-10T12:26:14.722Z,80.09
2018-05-10T12:28:40.279Z,78.98
2018-05-10T12:31:05.908Z,80.25
2018-05-10T12:33:32.352Z,80.15
2018-05-10T12:35:57.948Z,80.13
2018-05-10T12:38:24.773Z,79.99
2018-05-10T12:40:50.521Z,80.20
2018-05-10T12:43:16.176Z,80.29
2018-05-10T12:45:41.982Z,79.50
2018-05-10T12:48:07.790Z,79.92
2018-05-10T12:50:33.389Z,80.60
2018-05-10T12:52:59.796Z,80.59
2018-05-10T12:55:25.564Z,80.97
2018-05-10T12:57:51.231Z,80.95
2018-05-10T13:00:17.352Z,80.86
2018-05-10T13:02:43.003Z,80.17
2018-05-10T13:05:09.926Z,80.09
2018-05-10T13:07:35.644Z,79.99
2018-05-10T13:10:02.425Z,79.82
2018-05-10T13:12:28.093Z,79.56
2018-05-10T13:14:54.494Z,79.62
2018-05-10T13:17:20.102Z,79.96
2018-05-10T13:19:46.870Z,78.65
2018-05-10T13:22:12.499Z,79.29
2018-05-10T13:24:39.340Z,78.25
2018-05-10T13:27:05.008Z,79.12
2018-05-10T13:29:30.714Z,78.38
2018-05-10T13:31:57.099Z,78.79
2018-05-10T13:34:22.718Z,78.59
2018-05-10T13:36:49.397Z,78.47
2018-05-10T13:39:15.104Z,78.64
2018-05-10T13:41:41.108Z,78.54
2018-05-10T13:44:06.904Z,78.38
2018-05-10T13:46:32.621Z,77.41
2018-05-10T13:48:59.357Z,78.42
2018-05-10T13:51:25.430Z,78.20
2018-05-10T13:53:51.170Z,77.71
2018-05-10T13:56:18.681Z,78.75
2018-05-10T13:58:44.471Z,79.63
2018-05-10T14:01:10.955Z,79.82
2018-05-10T14:03:36.788Z,79.76
2018-05-10T14:06:02.645Z,80.16
2018-05-10T14:08:28.900Z,81.42
2018-05-10T14:10:54.716Z,81.20
2018-05-10T14:13:20.373Z,81.63
2018-05-10T14:15:46.119Z,80.78
2018-05-10T14:18:11.780Z,81.18
2018-05-10T14:20:37.395Z,80.74
2018-05-10T14:23:03.137Z,81.24
2018-05-10T14:25:28.878Z,80.48
2018-05-10T14:27:54.403Z,80.16
2018-05-10T14:30:20.524Z,80.46
2018-05-10T14:32:46.071Z,80.65
2018-05-10T14:35:11.639Z,80.52
2018-05-10T14:37:37.404Z,80.01
2018-05-10T14:40:02.985Z,79.80
2018-05-10T14:42:28.542Z,81.16
2018-05-10T14:44:54.266Z,81.09
2018-05-10T14:47:19.830Z,80.80
2018-05-10T14:49:45.412Z,80.49
2018-05-10T14:52:11.464Z,78.56
2018-05-10T14:54:37.028Z,79.01
2018-05-10T14:57:02.594Z,78.83
2018-05-10T14:59:28.360Z,78.49
2018-05-10T15:01:53.991Z,78.53
2018-05-10T15:04:19.551Z,77.98
2018-05-10T15:06:46.362Z,79.81
2018-05-10T15:09:12.170Z,79.37
2018-05-10T15:11:37.794Z,78.42
2018-05-10T15:14:03.661Z,78.06
2018-05-10T15:16:29.413Z,78.97
2018-05-10T15:18:55.027Z,78.91
2018-05-10T15:21:20.584Z,79.28
2018-05-10T15:23:46.504Z,78.59
2018-05-10T15:26:12.097Z,78.62
2018-05-10T15:28:37.656Z,78.93
2018-05-10T15:31:03.485Z,78.74
2018-05-10T15:33:29.206Z,78.37
2018-05-10T15:35:54.820Z,78.14
2018-05-10T15:38:20.571Z,77.89
2018-05-10T15:40:46.169Z,77.98
2018-05-10T15:43:11.759Z,77.75
2018-05-10T15:45:37.502Z,78.09
2018-05-10T15:48:03.133Z,78.14
2018-05-10T15:50:28.804Z,77.84
2018-05-10T15:52:54.584Z,77.34
2018-05-10T15:55:20.154Z,77.60
2018-05-10T15:57:45.803Z,76.28
2018-05-10T16:00:11.911Z,77.58
2018-05-10T16:02:37.486Z,77.11
2018-05-10T16:05:03.076Z,77.06
2018-05-10T16:07:28.919Z,76.69
2018-05-10T16:09:54.494Z,76.91
2018-05-10T16:12:20.096Z,77.22
2018-05-10T16:14:45.832Z,76.28
2018-05-10T16:17:11.652Z,76.42
2018-05-10T16:19:37.272Z,76.25
2018-05-10T16:22:02.841Z,76.70
2018-05-10T16:24:28.631Z,76.82
2018-05-10T16:26:54.397Z,76.92
2018-05-10T16:29:19.966Z,76.66
2018-05-10T16:31:45.728Z,77.03
2018-05-10T16:34:11.299Z,77.67
2018-05-10T16:36:36.867Z,77.23
2018-05-10T16:39:02.664Z,75.99
2018-05-10T16:41:28.285Z,75.52
2018-05-10T16:43:53.851Z,75.85
2018-05-10T16:46:19.664Z,75.63
2018-05-10T16:48:45.295Z,77.34
2018-05-10T16:51:10.890Z,76.45
2018-05-10T16:53:36.679Z,76.89
2018-05-10T16:56:02.324Z,76.60
2018-05-10T16:58:28.155Z,77.24
2018-05-10T17:00:54.260Z,76.68
2018-05-10T17:03:19.813Z,76.63
2018-05-10T17:05:45.400Z,75.66
2018-05-10T17:08:11.128Z,76.93
2018-05-10T17:10:36.736Z,77.18
2018-05-10T17:13:02.523Z,76.20
2018-05-10T17:15:28.119Z,76.01
2018-05-10T17:17:53.761Z,76.51
2018-05-10T17:20:19.598Z,76.62
2018-05-10T17:22:45.214Z,76.79
2018-05-10T17:25:10.763Z,75.91
2018-05-10T17:27:37.685Z,75.11
2018-05-10T17:30:03.479Z,75.28
2018-05-10T17:32:29.223Z,75.75
2018-05-10T17:34:54.961Z,74.35
2018-05-10T17:37:20.786Z,73.45
2018-05-10T17:39:46.371Z,74.26
2018-05-10T17:42:11.929Z,73.99
2018-05-10T17:44:37.746Z,74.06
2018-05-10T17:47:03.372Z,72.37
2018-05-10T17:49:29.117Z,73.25
2018-05-10T17:51:55.156Z,73.46
2018-05-10T17:54:20.739Z,73.44
2018-05-10T17:56:46.293Z,73.12
2018-05-10T17:59:12.038Z,73.14
2018-05-10T18:01:37.617Z,73.10
2018-05-10T18:04:03.183Z,72.80
2018-05-10T18:06:28.948Z,72.84
2018-05-10T18:08:54.592Z,73.50
2018-05-10T18:11:20.215Z,73.90
2018-05-10T18:13:46.153Z,74.14
2018-05-10T18:16:12.459Z,73.99
2018-05-10T18:18:38.166Z,72.67
2018-05-10T18:21:04.154Z,72.87
2018-05-10T18:23:29.892Z,72.88
2018-05-10T18:25:55.525Z,73.73
2018-05-10T18:28:21.109Z,73.69
2018-05-10T18:30:46.866Z,73.57
2018-05-10T18:33:13.494Z,72.67
2018-05-10T18:35:38.931Z,72.24
2018-05-10T18:38:04.608Z,71.95
2018-05-10T18:40:31.394Z,73.31
2018-05-10T18:42:56.986Z,74.13
2018-05-10T18:45:23.604Z,73.93
2018-05-10T18:47:49.369Z,73.11
2018-05-10T18:50:16.640Z,72.91
2018-05-10T18:52:42.587Z,74.00
2018-05-10T18:55:08.593Z,73.74
2018-05-10T18:57:35.323Z,74.14
2018-05-10T19:00:01.108Z,73.17
2018-05-10T19:02:26.701Z,72.65
2018-05-10T19:04:52.396Z,73.21
2018-05-10T19:07:19.348Z,73.40
2018-05-10T19:09:44.865Z,74.50
2018-05-10T19:12:10.634Z,74.28
2018-05-10T19:14:36.358Z,74.32
2018-05-10T19:17:01.923Z,74.22
2018-05-10T19:19:27.490Z,73.99
2018-05-10T19:21:53.267Z,73.40
2018-05-10T19:24:18.833Z,74.20
2018-05-10T19:26:44.409Z,74.31
2018-05-10T19:29:10.139Z,74.10
2018-05-10T19:31:35.719Z,73.40
2018-05-10T19:34:01.288Z,73.83
2018-05-10T19:36:27.075Z,73.81
2018-05-10T19:38:52.644Z,73.60
2018-05-10T19:41:18.646Z,73.52
2018-05-10T19:43:44.567Z,73.28
2018-05-10T19:46:10.168Z,73.63
2018-05-10T19:48:35.837Z,74.12
2018-05-10T19:51:01.651Z,73.77
2018-05-10T19:53:27.516Z,74.53
2018-05-10T19:55:53.084Z,73.64
2018-05-10T19:58:18.799Z,74.62
2018-05-10T20:00:44.376Z,74.45
2018-05-10T20:03:10.087Z,74.95
2018-05-10T20:05:35.654Z,75.47
2018-05-10T20:08:01.303Z,74.94
2018-05-10T20:10:27.202Z,75.53
2018-05-10T20:12:53.102Z,75.52
2018-05-10T20:15:18.971Z,75.05
2018-05-10T20:17:44.669Z,75.26
2018-05-10T20:20:10.815Z,75.76
2018-05-10T20:22:36.377Z,75.07
2018-05-10T20:25:02.243Z,75.70
2018-05-10T20:27:27.815Z,73.92
2018-05-10T20:29:53.571Z,74.46
2018-05-10T20:32:19.144Z,74.76
2018-05-10T20:34:44.906Z,75.18
2018-05-10T20:37:10.470Z,75.18
2018-05-10T20:39:36.036Z,74.06
2018-05-10T20:42:01.998Z,74.07
2018-05-10T20:44:27.575Z,74.21
2018-05-10T20:46:53.189Z,74.49
2018-05-10T20:49:19.000Z,74.86
2018-05-10T20:51:44.579Z,74.44
2018-05-10T20:54:10.345Z,74.41
2018-05-10T20:56:36.254Z,74.45
2018-05-10T20:59:01.848Z,73.46
2018-05-10T21:01:27.416Z,73.89
2018-05-10T21:03:53.136Z,74.09
2018-05-10T21:06:18.712Z,73.98
2018-05-10T21:08:44.291Z,73.91
2018-05-10T21:11:10.071Z,74.23
2018-05-10T21:13:35.697Z,74.13
2018-05-10T21:16:01.524Z,74.05
2018-05-10T21:18:27.358Z,74.20
2018-05-10T21:20:52.904Z,73.94
2018-05-10T21:23:18.469Z,74.47
2018-05-10T21:25:44.277Z,74.70
2018-05-10T21:28:09.922Z,73.93
2018-05-10T21:30:35.536Z,73.58
2018-05-10T21:33:01.643Z,74.34
2018-05-10T21:35:27.318Z,74.57
2018-05-10T21:37:54.949Z,73.86
2018-05-10T21:40:20.515Z,74.17
2018-05-10T21:42:46.145Z,74.54
2018-05-10T21:45:11.900Z,74.73
2018-05-10T21:47:37.496Z,74.56
2018-05-10T21:50:05.857Z,74.87
2018-05-10T21:52:32.673Z,74.57
2018-05-10T21:54:58.306Z,74.36
2018-05-10T21:57:23.882Z,74.21
2018-05-10T21:59:49.596Z,74.77
2018-05-10T22:02:15.180Z,74.89
2018-05-10T22:04:41.311Z,74.83
2018-05-10T22:07:06.958Z,74.78
2018-05-10T22:09:32.597Z,75.32
2018-05-10T22:11:58.424Z,75.24
2018-05-10T22:14:24.035Z,73.11
2018-05-10T22:16:49.673Z,72.80
2018-05-10T22:19:15.535Z,74.37
2018-05-10T22:21:41.167Z,75.62
2018-05-10T22:24:06.816Z,75.73
2018-05-10T22:26:32.612Z,76.37
2018-05-10T22:28:58.352Z,75.12
2018-05-10T22:31:23.913Z,75.86
2018-05-10T22:33:49.707Z,75.95
2018-05-10T22:36:15.268Z,74.38
2018-05-10T22:38:40.825Z,73.60
2018-05-10T22:41:06.604Z,74.09
2018-05-10T22:43:32.223Z,75.67
2018-05-10T22:45:57.854Z,76.44
2018-05-10T22:48:23.704Z,76.34
2018-05-10T22:50:49.273Z,76.13
2018-05-10T22:53:14.998Z,75.70
2018-05-10T22:55:40.545Z,76.35
2018-05-10T22:58:06.148Z,75.24
2018-05-10T23:00:32.039Z,73.89
2018-05-10T23:02:57.619Z,76.01
2018-05-10T23:05:23.176Z,74.69
2018-05-10T23:07:48.963Z,74.64
2018-05-10T23:10:14.542Z,75.70
2018-05-10T23:12:40.116Z,75.82
2018-05-10T23:15:05.961Z,72.76
2018-05-10T23:17:31.541Z,73.92
2018-05-10T23:19:57.368Z,73.35
2018-05-10T23:22:23.079Z,72.99
2018-05-10T23:24:48.675Z,73.62
2018-05-10T23:27:14.229Z,72.83
2018-05-10T23:29:40.076Z,73.82
2018-05-10T23:32:05.635Z,74.83
2018-05-10T23:34:31.648Z,73.99
2018-05-10T23:36:57.439Z,72.71
2018-05-10T23:39:23.205Z,74.00
2018-05-10T23:41:48.883Z,74.45
2018-05-10T23:44:14.639Z,73.18
2018-05-10T23:46:40.262Z,74.02
2018-05-10T23:49:05.888Z,71.83
2018-05-10T23:51:31.617Z,73.19
2018-05-10T23:53:57.340Z,72.93
2018-05-10T23:56:22.893Z,73.12
2018-05-10T23:58:48.663Z,73.50
